Rutherfordton, North Carolina
Current Conditions -  °F | °C
As of 1:55 AM on Sunday 21 Dec 2014 (Local Time) from KFQD Reporting Station
Haze Haze  
Wind Chill: 40°   Ceiling: 600
Heat Index: 40°   Visibility: 2mi
Dew Point: 40°   Wind: 0mph
Humidity: 98%   Direction: NA
Pressure: 30.24"   Gusts: NA
Location:  35.37°N, 81.96°W
Report Text: KFQD 210655Z AUTO 00000KT 2SM BR OVC006 05/04 A3024 RMK AO2 T00460043
Loading
Personal Weather Stations






























Interactive Weather Map New forecast layout! Learn more

10-Day Weather Forecast

Advertisements
Track Severe Weather on mobile